createdAt,value
2022-08-12T00:00:34.303Z,999.13
2022-08-12T00:02:03.632Z,999.11
2022-08-12T00:02:35.319Z,999.14
2022-08-12T00:03:40.401Z,999.12
2022-08-12T00:04:34.266Z,999.09
2022-08-12T00:05:34.452Z,999.15
2022-08-12T00:06:34.240Z,999.12
2022-08-12T00:07:34.231Z,999.10
2022-08-12T00:08:36.837Z,999.09
2022-08-12T00:09:34.215Z,999.09
2022-08-12T00:10:34.198Z,999.10
2022-08-12T00:11:34.186Z,999.08
2022-08-12T00:12:34.175Z,999.09
2022-08-12T00:13:34.163Z,999.12
2022-08-12T00:14:34.153Z,999.07
2022-08-12T00:15:34.143Z,999.07
2022-08-12T00:16:34.135Z,999.09
2022-08-12T00:17:34.122Z,999.07
2022-08-12T00:18:34.119Z,999.10
2022-08-12T00:19:34.107Z,999.11
2022-08-12T00:20:34.096Z,999.06
2022-08-12T00:21:35.912Z,999.09
2022-08-12T00:22:34.082Z,999.08
2022-08-12T00:23:34.257Z,999.09
2022-08-12T00:24:34.048Z,999.11
2022-08-12T00:26:00.366Z,999.13
2022-08-12T00:26:35.061Z,999.14
2022-08-12T00:27:43.584Z,999.09
2022-08-12T00:28:35.044Z,999.06
2022-08-12T00:29:33.992Z,999.09
2022-08-12T00:30:33.977Z,999.09
2022-08-12T00:31:33.967Z,999.15
2022-08-12T00:32:35.865Z,999.09
2022-08-12T00:33:38.707Z,999.14
2022-08-12T00:34:35.193Z,999.11
2022-08-12T00:35:36.778Z,999.09
2022-08-12T00:36:35.821Z,999.06
2022-08-12T00:37:33.903Z,999.08
2022-08-12T00:38:34.014Z,999.09
2022-08-12T00:39:33.929Z,999.06
2022-08-12T00:40:33.882Z,999.04
2022-08-12T00:41:33.860Z,999.06
2022-08-12T00:42:33.850Z,999.06
2022-08-12T00:43:33.852Z,999.11
2022-08-12T00:44:33.826Z,999.10
2022-08-12T00:45:34.022Z,999.11
2022-08-12T00:46:34.012Z,999.09
2022-08-12T00:47:33.803Z,999.07
2022-08-12T00:48:33.802Z,999.06
2022-08-12T00:49:33.975Z,999.08
2022-08-12T00:50:33.764Z,999.08
2022-08-12T00:51:33.754Z,999.13
2022-08-12T00:52:33.745Z,999.15
2022-08-12T00:53:33.736Z,999.11
2022-08-12T00:54:33.719Z,999.08
2022-08-12T00:55:33.716Z,999.09
2022-08-12T00:56:33.699Z,999.09
2022-08-12T00:57:33.694Z,999.08
2022-08-12T00:58:33.678Z,999.05
2022-08-12T00:59:33.666Z,999.07
2022-08-12T01:00:33.662Z,999.07
2022-08-12T01:02:02.482Z,999.04
2022-08-12T01:02:34.736Z,999.07
2022-08-12T01:03:33.622Z,999.09
2022-08-12T01:04:39.618Z,999.09
2022-08-12T01:05:33.600Z,999.13
2022-08-12T01:06:39.602Z,999.15
2022-08-12T01:07:33.586Z,999.14
2022-08-12T01:08:33.567Z,999.12
2022-08-12T01:09:33.564Z,999.15
2022-08-12T01:10:33.548Z,999.20
2022-08-12T01:11:33.536Z,999.15
2022-08-12T01:12:33.526Z,999.09
2022-08-12T01:13:33.528Z,999.13
2022-08-12T01:14:33.508Z,999.10
2022-08-12T01:15:33.498Z,999.04
2022-08-12T01:16:33.482Z,999.05
2022-08-12T01:17:33.473Z,999.02
2022-08-12T01:18:33.461Z,999.06
2022-08-12T01:19:33.454Z,999.03
2022-08-12T01:20:33.437Z,999.09
2022-08-12T01:21:33.636Z,999.10
2022-08-12T01:22:33.417Z,999.08
2022-08-12T01:23:33.412Z,999.08
2022-08-12T01:24:33.395Z,999.09
2022-08-12T01:25:33.395Z,999.09
2022-08-12T01:26:33.378Z,999.08
2022-08-12T01:27:33.363Z,999.04
2022-08-12T01:28:33.357Z,999.08
2022-08-12T01:29:33.565Z,999.05
2022-08-12T01:30:33.537Z,999.05
2022-08-12T01:31:33.335Z,999.06
2022-08-12T01:32:33.310Z,999.10
2022-08-12T01:33:33.304Z,999.09
2022-08-12T01:34:36.179Z,999.07
2022-08-12T01:35:39.295Z,999.06
2022-08-12T01:36:33.266Z,999.05
2022-08-12T01:37:33.258Z,999.05
2022-08-12T01:38:33.255Z,998.98
2022-08-12T01:39:33.363Z,999.02
2022-08-12T01:40:37.679Z,999.00
2022-08-12T01:41:33.212Z,999.02
2022-08-12T01:42:33.208Z,999.04
2022-08-12T01:43:33.192Z,999.03
2022-08-12T01:44:33.183Z,999.09
2022-08-12T01:45:43.152Z,999.07
2022-08-12T01:46:33.169Z,999.11
2022-08-12T01:47:33.149Z,999.10
2022-08-12T01:48:39.147Z,999.10
2022-08-12T01:49:33.128Z,999.13
2022-08-12T01:50:33.327Z,999.08
2022-08-12T01:52:21.869Z,999.05
2022-08-12T01:52:34.141Z,999.05
2022-08-12T01:53:50.483Z,999.07
2022-08-12T01:54:34.109Z,999.07
2022-08-12T01:55:33.066Z,999.05
2022-08-12T01:56:33.052Z,999.11
2022-08-12T01:57:59.237Z,999.11
2022-08-12T01:58:34.067Z,999.11
2022-08-12T01:59:33.022Z,999.10
2022-08-12T02:00:36.084Z,999.10
2022-08-12T02:01:34.113Z,999.12
2022-08-12T02:02:32.995Z,999.09
2022-08-12T02:03:32.981Z,999.12
2022-08-12T02:04:32.970Z,999.13
2022-08-12T02:05:33.112Z,999.07
2022-08-12T02:06:32.949Z,999.08
2022-08-12T02:07:32.937Z,999.08
2022-08-12T02:08:32.929Z,999.07
2022-08-12T02:09:32.923Z,999.04
2022-08-12T02:10:50.158Z,999.06
2022-08-12T02:11:33.929Z,999.07
2022-08-12T02:12:32.890Z,999.03
2022-08-12T02:13:42.036Z,999.05
2022-08-12T02:14:33.898Z,999.05
2022-08-12T02:15:32.852Z,999.04
2022-08-12T02:16:33.046Z,999.07
2022-08-12T02:17:54.627Z,999.02
2022-08-12T02:18:33.855Z,999.04
2022-08-12T02:19:33.012Z,998.98
2022-08-12T02:20:35.173Z,998.99
2022-08-12T02:21:33.824Z,998.96
2022-08-12T02:22:32.776Z,998.97
2022-08-12T02:23:32.769Z,998.93
2022-08-12T02:24:32.754Z,998.95
2022-08-12T02:25:32.743Z,998.98
2022-08-12T02:26:32.729Z,998.95
2022-08-12T02:27:32.720Z,998.93
2022-08-12T02:28:32.707Z,998.98
2022-08-12T02:29:32.709Z,998.96
2022-08-12T02:30:41.228Z,998.98
2022-08-12T02:31:33.726Z,998.97
2022-08-12T02:32:32.671Z,998.94
2022-08-12T02:33:32.657Z,998.93
2022-08-12T02:34:32.649Z,998.94
2022-08-12T02:35:32.638Z,998.87
2022-08-12T02:36:32.622Z,998.88
2022-08-12T02:37:32.616Z,998.89
2022-08-12T02:38:32.617Z,998.90
2022-08-12T02:39:32.668Z,998.92
2022-08-12T02:40:32.595Z,998.89
2022-08-12T02:41:32.570Z,998.88
2022-08-12T02:42:32.557Z,998.88
2022-08-12T02:43:32.555Z,998.89
2022-08-12T02:44:32.547Z,998.89
2022-08-12T02:45:32.531Z,998.88
2022-08-12T02:46:32.570Z,998.90
2022-08-12T02:47:59.231Z,998.92
2022-08-12T02:48:33.536Z,998.88
2022-08-12T02:49:32.491Z,998.86
2022-08-12T02:50:32.477Z,998.89
2022-08-12T02:51:32.478Z,998.89
2022-08-12T02:52:32.453Z,998.87
2022-08-12T02:53:32.444Z,998.91
2022-08-12T02:54:32.434Z,998.87
2022-08-12T02:55:34.901Z,998.91
2022-08-12T02:56:32.418Z,998.92
2022-08-12T02:57:32.402Z,998.90
2022-08-12T02:58:33.316Z,998.92
2022-08-12T02:59:32.586Z,998.91
2022-08-12T03:00:32.376Z,998.89
2022-08-12T03:01:32.621Z,998.90
2022-08-12T03:02:32.350Z,998.89
2022-08-12T03:03:32.360Z,998.84
2022-08-12T03:04:32.325Z,998.86
2022-08-12T03:05:32.314Z,998.86
2022-08-12T03:06:32.309Z,998.83
2022-08-12T03:07:55.901Z,998.85
2022-08-12T03:08:33.521Z,998.83
2022-08-12T03:09:35.851Z,998.88
2022-08-12T03:10:37.620Z,998.85
2022-08-12T03:11:32.252Z,998.83
2022-08-12T03:12:47.462Z,998.86
2022-08-12T03:13:33.473Z,998.87
2022-08-12T03:14:32.230Z,998.87
2022-08-12T03:15:32.209Z,998.83
2022-08-12T03:16:33.147Z,998.82
2022-08-12T03:17:32.187Z,998.90
2022-08-12T03:18:32.175Z,998.87
2022-08-12T03:19:32.172Z,998.90
2022-08-12T03:20:32.159Z,998.88
2022-08-12T03:21:55.678Z,998.86
2022-08-12T03:22:33.170Z,998.86
2022-08-12T03:23:32.131Z,998.86
2022-08-12T03:24:38.120Z,998.92
2022-08-12T03:25:32.109Z,998.90
2022-08-12T03:26:32.092Z,998.87
2022-08-12T03:27:32.134Z,998.89
2022-08-12T03:28:32.068Z,998.87
2022-08-12T03:29:32.059Z,998.83
2022-08-12T03:30:33.085Z,998.84
2022-08-12T03:31:32.040Z,998.85
2022-08-12T03:32:35.852Z,998.86
2022-08-12T03:33:34.080Z,998.93
2022-08-12T03:34:32.009Z,998.90
2022-08-12T03:35:41.377Z,998.92
2022-08-12T03:36:33.019Z,998.90
2022-08-12T03:37:31.972Z,998.91
2022-08-12T03:38:31.964Z,998.93
2022-08-12T03:39:36.016Z,998.92
2022-08-12T03:40:31.944Z,998.98
2022-08-12T03:41:31.930Z,999.04
2022-08-12T03:42:31.925Z,999.10
2022-08-12T03:43:31.911Z,999.08
2022-08-12T03:44:31.913Z,999.02
2022-08-12T03:45:31.836Z,999.01
2022-08-12T03:46:31.892Z,999.02
2022-08-12T03:47:31.828Z,998.98
2022-08-12T03:48:31.805Z,998.99
2022-08-12T03:49:31.998Z,998.98
2022-08-12T03:50:31.836Z,999.02
2022-08-12T03:51:31.831Z,999.04
2022-08-12T03:52:31.849Z,999.02
2022-08-12T03:53:31.764Z,999.01
2022-08-12T03:54:31.999Z,999.02
2022-08-12T03:55:31.783Z,999.04
2022-08-12T03:56:31.731Z,998.97
2022-08-12T03:57:31.719Z,999.05
2022-08-12T03:58:31.698Z,999.03
2022-08-12T03:59:31.693Z,999.05
2022-08-12T04:00:31.683Z,999.05
2022-08-12T04:01:31.814Z,998.99
2022-08-12T04:02:32.688Z,999.04
2022-08-12T04:03:31.643Z,999.03
2022-08-12T04:04:31.633Z,999.08
2022-08-12T04:05:54.515Z,999.07
2022-08-12T04:06:34.814Z,999.08
2022-08-12T04:07:31.609Z,999.10
2022-08-12T04:08:31.594Z,999.09
2022-08-12T04:09:31.581Z,999.11
2022-08-12T04:10:31.571Z,999.10
2022-08-12T04:11:32.262Z,999.14
2022-08-12T04:12:32.854Z,999.15
2022-08-12T04:13:32.574Z,999.14
2022-08-12T04:14:31.533Z,999.17
2022-08-12T04:15:31.534Z,999.18
2022-08-12T04:16:31.506Z,999.19
2022-08-12T04:17:31.507Z,999.23
2022-08-12T04:18:31.489Z,999.19
2022-08-12T04:19:31.482Z,999.27
2022-08-12T04:20:31.468Z,999.27
2022-08-12T04:21:31.453Z,999.24
2022-08-12T04:22:31.443Z,999.21
2022-08-12T04:23:31.450Z,999.20
2022-08-12T04:24:31.419Z,999.21
2022-08-12T04:25:31.415Z,999.22
2022-08-12T04:26:31.405Z,999.20
2022-08-12T04:27:32.117Z,999.24
2022-08-12T04:28:31.379Z,999.25
2022-08-12T04:30:30.138Z,999.23
2022-08-12T04:30:33.749Z,999.21
2022-08-12T04:31:31.342Z,999.21
2022-08-12T04:32:31.378Z,999.19
2022-08-12T04:33:31.322Z,999.23
2022-08-12T04:34:31.312Z,999.23
2022-08-12T04:35:31.305Z,999.23
2022-08-12T04:36:31.293Z,999.21
2022-08-12T04:37:58.137Z,999.22
2022-08-12T04:38:32.306Z,999.19
2022-08-12T04:39:31.278Z,999.22
2022-08-12T04:40:31.295Z,999.17
2022-08-12T04:41:31.244Z,999.22
2022-08-12T04:42:31.287Z,999.18
2022-08-12T04:44:00.422Z,999.18
2022-08-12T04:44:32.242Z,999.19
2022-08-12T04:45:31.204Z,999.17
2022-08-12T04:46:34.743Z,999.16
2022-08-12T04:47:37.182Z,999.16
2022-08-12T04:48:31.174Z,999.18
2022-08-12T04:49:31.154Z,999.22
2022-08-12T04:50:35.963Z,999.22
2022-08-12T04:51:31.131Z,999.23
2022-08-12T04:52:34.858Z,999.25
2022-08-12T04:53:31.113Z,999.26
2022-08-12T04:54:31.097Z,999.24
2022-08-12T04:55:37.095Z,999.25
2022-08-12T04:56:35.538Z,999.27
2022-08-12T04:57:31.066Z,999.25
2022-08-12T04:58:31.059Z,999.26
2022-08-12T04:59:31.045Z,999.29
2022-08-12T05:00:32.069Z,999.32
2022-08-12T05:01:31.023Z,999.31
2022-08-12T05:02:31.066Z,999.31
2022-08-12T05:03:46.802Z,999.32
2022-08-12T05:04:32.027Z,999.33
2022-08-12T05:05:35.681Z,999.33
2022-08-12T05:06:30.968Z,999.40
2022-08-12T05:07:30.960Z,999.35
2022-08-12T05:08:30.948Z,999.35
2022-08-12T05:09:58.729Z,999.36
2022-08-12T05:10:33.808Z,999.36
2022-08-12T05:11:30.916Z,999.36
2022-08-12T05:12:30.967Z,999.31
2022-08-12T05:13:30.893Z,999.38
2022-08-12T05:14:33.336Z,999.30
2022-08-12T05:15:31.916Z,999.38
2022-08-12T05:16:34.281Z,999.36
2022-08-12T05:17:30.852Z,999.38
2022-08-12T05:18:30.839Z,999.38
2022-08-12T05:19:30.829Z,999.38
2022-08-12T05:20:30.840Z,999.39
2022-08-12T05:21:30.809Z,999.38
2022-08-12T05:22:30.856Z,999.42
2022-08-12T05:23:32.990Z,999.36
2022-08-12T05:24:30.783Z,999.32
2022-08-12T05:25:30.971Z,999.36
2022-08-12T05:26:30.758Z,999.36
2022-08-12T05:27:32.752Z,999.39
2022-08-12T05:28:30.742Z,999.42
2022-08-12T05:30:06.576Z,999.36
2022-08-12T05:30:31.748Z,999.41
2022-08-12T05:31:42.365Z,999.41
2022-08-12T05:32:31.758Z,999.41
2022-08-12T05:33:30.682Z,999.37
2022-08-12T05:34:30.667Z,999.39
2022-08-12T05:35:30.659Z,999.42
2022-08-12T05:36:30.651Z,999.43
2022-08-12T05:37:30.636Z,999.39
2022-08-12T05:38:30.830Z,999.36
2022-08-12T05:39:30.656Z,999.36
2022-08-12T05:40:30.601Z,999.33
2022-08-12T05:41:30.589Z,999.33
2022-08-12T05:42:32.687Z,999.31
2022-08-12T05:43:36.582Z,999.31
2022-08-12T05:44:30.560Z,999.31
2022-08-12T05:45:30.557Z,999.37
2022-08-12T05:46:30.537Z,999.31
2022-08-12T05:47:36.721Z,999.34
2022-08-12T05:48:31.557Z,999.35
2022-08-12T05:49:30.507Z,999.35
2022-08-12T05:50:30.497Z,999.38
2022-08-12T05:51:40.361Z,999.42
2022-08-12T05:52:31.512Z,999.38
2022-08-12T05:53:30.469Z,999.42
2022-08-12T05:54:54.393Z,999.40
2022-08-12T05:55:31.508Z,999.42
2022-08-12T05:56:30.472Z,999.46
2022-08-12T05:57:36.425Z,999.40
2022-08-12T05:58:30.411Z,999.42
2022-08-12T05:59:30.403Z,999.44
2022-08-12T06:00:30.392Z,999.46
2022-08-12T06:02:10.787Z,999.45
2022-08-12T06:02:31.436Z,999.43
2022-08-12T06:03:30.415Z,999.43
2022-08-12T06:04:30.346Z,999.41
2022-08-12T06:05:30.336Z,999.43
2022-08-12T06:06:31.666Z,999.42
2022-08-12T06:08:00.504Z,999.45
2022-08-12T06:08:31.341Z,999.39
2022-08-12T06:09:30.309Z,999.48
2022-08-12T06:10:32.042Z,999.41
2022-08-12T06:11:30.269Z,999.45
2022-08-12T06:12:30.331Z,999.42
2022-08-12T06:13:54.291Z,999.35
2022-08-12T06:14:30.237Z,999.37
2022-08-12T06:15:30.228Z,999.34
2022-08-12T06:16:30.217Z,999.36
2022-08-12T06:17:30.205Z,999.36
2022-08-12T06:18:30.193Z,999.37
2022-08-12T06:20:25.859Z,999.36
2022-08-12T06:20:34.306Z,999.35
2022-08-12T06:21:36.169Z,999.35
2022-08-12T06:22:30.160Z,999.35
2022-08-12T06:23:30.486Z,999.34
2022-08-12T06:24:30.130Z,999.33
2022-08-12T06:25:30.138Z,999.37
2022-08-12T06:26:30.104Z,999.35
2022-08-12T06:27:30.094Z,999.39
2022-08-12T06:28:36.112Z,999.38
2022-08-12T06:30:08.553Z,999.33
2022-08-12T06:30:35.220Z,999.31
2022-08-12T06:31:30.057Z,999.35
2022-08-12T06:32:30.162Z,999.35
2022-08-12T06:34:00.934Z,999.32
2022-08-12T06:35:26.142Z,999.35
2022-08-12T06:35:47.492Z,999.37
2022-08-12T06:36:33.361Z,999.33
2022-08-12T06:37:29.990Z,999.35
2022-08-12T06:38:29.979Z,999.38
2022-08-12T06:39:30.015Z,999.35
2022-08-12T06:40:29.962Z,999.36
2022-08-12T06:41:29.949Z,999.35
2022-08-12T06:42:32.865Z,999.36
2022-08-12T06:43:29.927Z,999.43
2022-08-12T06:44:30.949Z,999.38
2022-08-12T06:45:45.280Z,999.32
2022-08-12T06:46:30.929Z,999.37
2022-08-12T06:47:29.885Z,999.40
2022-08-12T06:48:29.871Z,999.40
2022-08-12T06:49:29.859Z,999.40
2022-08-12T06:50:39.941Z,999.40
2022-08-12T06:51:29.845Z,999.45
2022-08-12T06:52:29.831Z,999.45
2022-08-12T06:53:29.821Z,999.37
2022-08-12T06:54:31.676Z,999.45
2022-08-12T06:55:29.795Z,999.41
2022-08-12T06:57:01.814Z,999.40
2022-08-12T06:58:05.155Z,999.40
2022-08-12T06:58:30.805Z,999.40
2022-08-12T06:59:29.965Z,999.40
2022-08-12T07:00:32.567Z,999.40
2022-08-12T07:01:35.747Z,999.43
2022-08-12T07:02:32.561Z,999.40
2022-08-12T07:03:29.711Z,999.41
2022-08-12T07:04:38.239Z,999.41
2022-08-12T07:05:31.690Z,999.43
2022-08-12T07:06:29.686Z,999.39
2022-08-12T07:07:29.670Z,999.41
2022-08-12T07:08:35.675Z,999.40
2022-08-12T07:09:59.498Z,999.43
2022-08-12T07:10:30.881Z,999.43
2022-08-12T07:11:29.834Z,999.46
2022-08-12T07:12:35.629Z,999.43
2022-08-12T07:13:29.605Z,999.42
2022-08-12T07:14:29.598Z,999.38
2022-08-12T07:15:29.589Z,999.39
2022-08-12T07:16:29.783Z,999.39
2022-08-12T07:17:29.774Z,999.37
2022-08-12T07:18:29.559Z,999.36
2022-08-12T07:19:40.608Z,999.40
2022-08-12T07:20:51.696Z,999.36
2022-08-12T07:22:00.252Z,999.38
2022-08-12T07:22:30.753Z,999.34
2022-08-12T07:23:29.706Z,999.38
2022-08-12T07:24:29.491Z,999.31
2022-08-12T07:25:37.546Z,999.33
2022-08-12T07:26:30.511Z,999.27
2022-08-12T07:27:29.479Z,999.31
2022-08-12T07:28:29.460Z,999.34
2022-08-12T07:29:58.228Z,999.33
2022-08-12T07:30:30.485Z,999.32
2022-08-12T07:31:29.418Z,999.33
2022-08-12T07:32:29.643Z,999.31
2022-08-12T07:33:29.400Z,999.33
2022-08-12T07:34:29.433Z,999.33
2022-08-12T07:35:29.379Z,999.27
2022-08-12T07:36:29.372Z,999.30
2022-08-12T07:37:29.357Z,999.31
2022-08-12T07:38:30.545Z,999.37
2022-08-12T07:39:29.577Z,999.26
2022-08-12T07:40:29.327Z,999.28
2022-08-12T07:41:29.317Z,999.31
2022-08-12T07:42:29.495Z,999.33
2022-08-12T07:43:29.310Z,999.29
2022-08-12T07:44:35.293Z,999.29
2022-08-12T07:45:29.488Z,999.32
2022-08-12T07:46:29.263Z,999.30
2022-08-12T07:47:29.259Z,999.27
2022-08-12T07:48:35.456Z,999.27
2022-08-12T07:49:29.242Z,999.28
2022-08-12T07:50:29.228Z,999.28
2022-08-12T07:51:29.442Z,999.24
2022-08-12T07:52:29.208Z,999.24
2022-08-12T07:53:29.397Z,999.26
2022-08-12T07:54:29.188Z,999.26
2022-08-12T07:55:29.176Z,999.24
2022-08-12T07:56:29.166Z,999.25
2022-08-12T07:57:35.158Z,999.20
2022-08-12T07:58:29.347Z,999.25
2022-08-12T07:59:31.194Z,999.21
2022-08-12T08:00:29.129Z,999.23
2022-08-12T08:01:29.435Z,999.22
2022-08-12T08:02:29.103Z,999.24
2022-08-12T08:03:29.107Z,999.25
2022-08-12T08:04:29.088Z,999.22
2022-08-12T08:05:29.076Z,999.21
2022-08-12T08:06:29.068Z,999.24
2022-08-12T08:07:29.257Z,999.26
2022-08-12T08:08:35.054Z,999.24
2022-08-12T08:09:29.037Z,999.23
2022-08-12T08:10:29.030Z,999.25
2022-08-12T08:12:19.052Z,999.25
2022-08-12T08:13:12.840Z,999.20
2022-08-12T08:14:11.795Z,999.24
2022-08-12T08:15:11.784Z,999.25
2022-08-12T08:16:11.979Z,999.29
2022-08-12T08:17:19.969Z,999.29
2022-08-12T08:18:13.249Z,999.25
2022-08-12T08:19:11.747Z,999.27
2022-08-12T08:20:11.752Z,999.27
2022-08-12T08:21:11.724Z,999.26
2022-08-12T08:22:11.917Z,999.27
2022-08-12T08:23:11.905Z,999.27
2022-08-12T08:24:11.692Z,999.26
2022-08-12T08:25:36.669Z,999.33
2022-08-12T08:26:11.877Z,999.27
2022-08-12T08:27:11.663Z,999.29
2022-08-12T08:28:11.660Z,999.29
2022-08-12T08:29:11.648Z,999.28
2022-08-12T08:30:11.637Z,999.25
2022-08-12T08:31:11.625Z,999.29
2022-08-12T08:32:11.620Z,999.28
2022-08-12T08:33:20.099Z,999.31
2022-08-12T08:34:33.211Z,999.33
2022-08-12T08:35:12.623Z,999.30
2022-08-12T08:36:23.669Z,999.33
2022-08-12T08:37:15.393Z,999.30
2022-08-12T08:38:28.745Z,999.28
2022-08-12T08:39:11.651Z,999.27
2022-08-12T08:40:11.745Z,999.25
2022-08-12T08:42:15.824Z,999.25
2022-08-12T08:42:20.317Z,999.20
2022-08-12T08:43:11.516Z,999.24
2022-08-12T08:44:11.770Z,999.25
2022-08-12T08:45:11.702Z,999.22
2022-08-12T08:46:11.504Z,999.23
2022-08-12T08:47:11.483Z,999.28
2022-08-12T08:48:11.561Z,999.27
2022-08-12T08:49:17.471Z,999.22
2022-08-12T08:50:11.453Z,999.26
2022-08-12T08:51:11.441Z,999.18
2022-08-12T08:52:39.238Z,999.17
2022-08-12T08:53:12.455Z,999.14
2022-08-12T08:54:11.410Z,999.15
2022-08-12T08:55:11.403Z,999.20
2022-08-12T08:56:11.391Z,999.21
2022-08-12T08:57:11.391Z,999.17
2022-08-12T08:58:13.375Z,999.11
2022-08-12T08:59:17.370Z,999.10
2022-08-12T09:00:11.353Z,999.13
2022-08-12T09:01:11.445Z,999.17
2022-08-12T09:02:13.428Z,999.12
2022-08-12T09:04:21.183Z,999.02
2022-08-12T09:05:16.357Z,999.04
2022-08-12T09:06:11.505Z,999.05
2022-08-12T09:07:17.824Z,999.07
2022-08-12T09:08:19.250Z,999.08
2022-08-12T09:09:13.071Z,999.11
2022-08-12T09:10:53.340Z,999.12
2022-08-12T09:11:12.289Z,999.06
2022-08-12T09:13:22.848Z,999.07
2022-08-12T09:14:19.153Z,999.03
2022-08-12T09:15:19.498Z,999.06
2022-08-12T09:16:12.343Z,999.01
2022-08-12T09:17:11.400Z,999.06
2022-08-12T09:18:11.227Z,999.06
2022-08-12T09:19:27.443Z,999.09
2022-08-12T09:20:15.900Z,999.13
2022-08-12T09:21:11.167Z,999.12
2022-08-12T09:22:11.565Z,999.09
2022-08-12T09:23:57.600Z,999.11
2022-08-12T09:24:12.173Z,999.11
2022-08-12T09:25:25.970Z,999.15
2022-08-12T09:26:13.316Z,999.12
2022-08-12T09:28:19.443Z,999.13
2022-08-12T09:29:12.469Z,999.10
2022-08-12T09:30:14.208Z,999.11
2022-08-12T09:32:03.818Z,999.13
2022-08-12T09:32:57.129Z,999.12
2022-08-12T09:33:18.668Z,999.09
2022-08-12T09:34:28.503Z,999.09
2022-08-12T09:35:18.533Z,999.11
2022-08-12T09:36:12.466Z,999.09
2022-08-12T09:37:57.921Z,999.07
2022-08-12T09:38:58.517Z,999.01
2022-08-12T09:40:06.017Z,999.04
2022-08-12T09:41:01.651Z,999.01
2022-08-12T09:42:09.028Z,998.95
2022-08-12T09:42:49.233Z,998.94
2022-08-12T09:43:47.094Z,998.98
2022-08-12T09:44:47.931Z,998.94
2022-08-12T09:46:29.787Z,998.92
2022-08-12T09:47:29.802Z,998.97
2022-08-12T09:48:35.139Z,998.93
2022-08-12T09:49:30.779Z,998.91
2022-08-12T09:50:29.526Z,998.86
2022-08-12T09:51:37.393Z,998.83
2022-08-12T09:52:31.846Z,998.91
2022-08-12T09:53:38.556Z,998.92
2022-08-12T09:54:34.250Z,998.94
2022-08-12T09:55:59.418Z,998.90
2022-08-12T09:56:59.581Z,998.89
2022-08-12T09:58:46.031Z,998.87
2022-08-12T09:58:53.771Z,998.82
2022-08-12T10:00:16.325Z,998.75
2022-08-12T10:00:43.191Z,998.76
2022-08-12T10:01:35.167Z,998.77
2022-08-12T10:02:53.159Z,998.75
2022-08-12T10:03:32.681Z,998.68
2022-08-12T10:04:30.220Z,998.72
2022-08-12T10:06:20.045Z,998.64
2022-08-12T10:06:32.412Z,998.63
2022-08-12T10:07:40.268Z,998.69
2022-08-12T10:08:29.791Z,998.71
2022-08-12T10:09:58.679Z,998.74
2022-08-12T10:10:30.768Z,998.66
2022-08-12T10:11:29.562Z,998.61
2022-08-12T10:12:31.445Z,998.59
2022-08-12T10:13:36.692Z,998.64
2022-08-12T10:14:33.307Z,998.62
2022-08-12T10:16:01.580Z,998.59
2022-08-12T10:16:33.951Z,998.53
2022-08-12T10:17:31.317Z,998.58
2022-08-12T10:19:17.041Z,998.54
2022-08-12T10:20:09.953Z,998.54
2022-08-12T10:21:07.996Z,998.53
2022-08-12T10:22:17.196Z,998.52
2022-08-12T10:23:09.402Z,998.52
2022-08-12T10:24:07.957Z,998.53
2022-08-12T10:25:17.673Z,998.49
2022-08-12T10:26:35.409Z,998.52
2022-08-12T10:27:08.971Z,998.51
2022-08-12T10:28:24.593Z,998.50
2022-08-12T10:30:38.783Z,998.46
2022-08-12T10:30:39.826Z,998.53
2022-08-12T10:31:16.432Z,998.42
2022-08-12T10:32:21.091Z,998.35
2022-08-12T10:33:17.971Z,998.43
2022-08-12T10:34:23.610Z,998.36
2022-08-12T10:35:08.076Z,998.37
2022-08-12T10:36:13.875Z,998.27
2022-08-12T10:37:23.445Z,998.23
2022-08-12T10:40:02.008Z,998.21
2022-08-12T10:40:11.521Z,998.20
2022-08-12T10:41:12.216Z,998.23
2022-08-12T10:42:15.303Z,998.16
2022-08-12T10:43:16.765Z,998.14
2022-08-12T10:44:08.244Z,998.08
2022-08-12T10:45:08.638Z,998.13
2022-08-12T10:46:13.618Z,998.09
2022-08-12T10:47:26.217Z,998.11
2022-08-12T10:49:06.603Z,998.02
2022-08-12T10:50:28.216Z,998.09
2022-08-12T10:51:03.951Z,998.08
2022-08-12T10:52:34.959Z,998.01
2022-08-12T10:53:03.924Z,997.98
2022-08-12T10:54:02.880Z,997.93
2022-08-12T10:55:02.872Z,997.89
2022-08-12T10:56:08.872Z,997.87
2022-08-12T10:57:08.869Z,997.87
2022-08-12T10:58:45.991Z,997.82
2022-08-12T10:59:39.146Z,997.88
2022-08-12T11:00:55.308Z,997.94
2022-08-12T11:04:16.732Z,997.97
2022-08-12T11:04:25.040Z,997.94
2022-08-12T11:04:35.500Z,997.94
2022-08-12T11:04:49.522Z,997.88
2022-08-12T11:07:08.365Z,997.91
2022-08-12T11:07:09.092Z,997.78
2022-08-12T11:08:38.705Z,997.78
2022-08-12T11:08:43.021Z,997.79
2022-08-12T11:10:14.308Z,997.74
2022-08-12T11:11:16.990Z,997.68
2022-08-12T11:12:55.110Z,997.71
2022-08-12T11:13:50.334Z,997.68
2022-08-12T11:14:51.478Z,997.65
2022-08-12T11:16:03.267Z,997.71
2022-08-12T11:17:33.678Z,997.74
2022-08-12T11:17:54.507Z,997.71
2022-08-12T11:18:55.004Z,997.74
2022-08-12T11:19:58.097Z,997.71
2022-08-12T11:21:39.615Z,997.69
2022-08-12T11:22:33.965Z,997.70
2022-08-12T11:23:38.811Z,997.67
2022-08-12T11:24:38.804Z,997.64
2022-08-12T11:25:56.044Z,997.62
2022-08-12T11:27:17.134Z,997.61
2022-08-12T11:28:17.321Z,997.63
2022-08-12T11:29:22.587Z,997.63
2022-08-12T11:30:30.551Z,997.62
2022-08-12T11:31:18.152Z,997.59
2022-08-12T11:32:23.201Z,997.61
2022-08-12T11:33:24.336Z,997.54
2022-08-12T11:34:52.564Z,997.54
2022-08-12T11:35:59.803Z,997.59
2022-08-12T11:36:53.526Z,997.53
2022-08-12T11:37:59.403Z,997.50
2022-08-12T11:38:53.889Z,997.54
2022-08-12T11:40:54.084Z,997.46
2022-08-12T11:41:52.837Z,997.41
2022-08-12T11:42:53.118Z,997.46
2022-08-12T11:43:58.962Z,997.39
2022-08-12T11:45:01.034Z,997.44
2022-08-12T11:45:59.032Z,997.52
2022-08-12T11:47:27.510Z,997.51
2022-08-12T11:48:27.895Z,997.45
2022-08-12T11:49:34.533Z,997.46
2022-08-12T11:50:33.485Z,997.44
2022-08-12T11:51:27.475Z,997.44
2022-08-12T11:52:54.885Z,997.49
2022-08-12T11:53:57.641Z,997.51
2022-08-12T11:54:33.598Z,997.45
2022-08-12T11:55:29.631Z,997.45
2022-08-12T11:56:38.202Z,997.50
2022-08-12T11:58:07.164Z,997.45
2022-08-12T12:00:23.973Z,997.46
2022-08-12T12:02:02.813Z,997.45
2022-08-12T12:02:34.561Z,997.44
2022-08-12T12:03:44.266Z,997.54
2022-08-12T12:04:28.991Z,997.52
2022-08-12T12:05:28.523Z,997.51
2022-08-12T12:06:28.640Z,997.47
2022-08-12T12:08:36.579Z,997.52
2022-08-12T12:08:38.197Z,997.47
2022-08-12T12:09:27.594Z,997.44
2022-08-12T12:10:28.422Z,997.41
2022-08-12T12:11:27.387Z,997.35
2022-08-12T12:12:28.815Z,997.33
2022-08-12T12:14:08.481Z,997.36
2022-08-12T12:14:38.156Z,997.40
2022-08-12T12:15:40.968Z,997.35
2022-08-12T12:16:28.393Z,997.34
2022-08-12T12:17:38.356Z,997.34
2022-08-12T12:18:33.564Z,997.28
2022-08-12T12:19:27.551Z,997.35
2022-08-12T12:20:30.566Z,997.31
2022-08-12T12:21:47.415Z,997.23
2022-08-12T12:22:31.023Z,997.25
2022-08-12T12:23:29.235Z,997.24
2022-08-12T12:24:27.320Z,997.22
2022-08-12T12:26:06.509Z,997.18
2022-08-12T12:26:35.297Z,997.14
2022-08-12T12:28:02.612Z,997.17
2022-08-12T12:28:36.826Z,997.17
2022-08-12T12:30:19.315Z,997.21
2022-08-12T12:30:29.879Z,997.12
2022-08-12T12:32:10.250Z,997.10
2022-08-12T12:32:34.524Z,997.10
2022-08-12T12:33:46.221Z,997.07
2022-08-12T12:34:30.296Z,997.06
2022-08-12T12:36:18.159Z,997.02
2022-08-12T12:36:29.918Z,997.01
2022-08-12T12:38:03.785Z,997.05
2022-08-12T12:38:28.352Z,997.00
2022-08-12T12:39:27.338Z,996.96
2022-08-12T12:40:30.099Z,996.94
2022-08-12T12:42:41.877Z,996.94
2022-08-12T12:42:42.889Z,996.93
2022-08-12T12:43:37.110Z,996.94